Time;durP1;ratioP1;P1;durP2;ratioP2;P2;SDS_P1;SDS_P2;PMS_P1;PMS_P2;Temp;Humidity;BMP_temperature;BMP_pressure;BME280_temperature;BME280_humidity;BME280_pressure;Samples;Min_cycle;Max_cycle;Signal;HPM_P1;HPM_P2
2024/01/23 00:01:11;;;;;;;8.10;2.03;;;;;8.60;99004.00;;;;5074422;28;20408;-65
2024/01/23 00:03:37;;;;;;;10.80;2.33;;;;;8.60;98981.00;;;;5073633;28;20063;-65
2024/01/23 00:06:04;;;;;;;6.18;1.88;;;;;8.60;98987.00;;;;5074122;28;20037;-65
2024/01/23 00:08:31;;;;;;;18.45;3.72;;;;;8.60;99000.00;;;;5074031;28;20055;-65
2024/01/23 00:11:02;;;;;;;10.07;2.25;;;;;8.50;99000.00;;;;5073548;28;20040;-65
2024/01/23 00:13:28;;;;;;;7.78;2.15;;;;;8.50;99005.00;;;;5073465;28;20044;-66
2024/01/23 00:15:55;;;;;;;7.07;1.65;;;;;8.40;99005.00;;;;5073993;28;20049;-65
2024/01/23 00:18:21;;;;;;;9.85;2.10;;;;;8.40;99018.00;;;;5074020;28;20466;-65
2024/01/23 00:20:48;;;;;;;13.55;2.60;;;;;8.40;99007.00;;;;5073798;28;20067;-65
2024/01/23 00:23:15;;;;;;;7.45;1.95;;;;;8.40;99010.00;;;;5073752;28;20466;-63
2024/01/23 00:25:41;;;;;;;8.77;1.80;;;;;8.40;99017.00;;;;5072929;28;20044;-64
2024/01/23 00:28:09;;;;;;;8.40;2.30;;;;;8.40;99013.00;;;;5073690;28;20060;-63
2024/01/23 00:30:37;;;;;;;13.38;2.38;;;;;8.40;99018.00;;;;5073731;28;20044;-63
2024/01/23 00:33:03;;;;;;;11.25;2.42;;;;;8.30;99026.00;;;;5073640;28;20504;-63
2024/01/23 00:35:30;;;;;;;8.48;2.35;;;;;8.30;99024.00;;;;5073025;28;20044;-63
2024/01/23 00:37:57;;;;;;;8.35;2.03;;;;;8.40;99013.00;;;;5073812;28;20051;-63
2024/01/23 00:40:23;;;;;;;9.93;2.00;;;;;8.40;99018.00;;;;5073813;28;20404;-63
2024/01/23 00:42:50;;;;;;;10.65;2.15;;;;;8.40;99029.00;;;;5073404;28;20516;-63
2024/01/23 00:45:17;;;;;;;9.13;1.63;;;;;8.40;99026.00;;;;5072954;28;20052;-63
2024/01/23 00:47:44;;;;;;;9.90;1.70;;;;;8.40;99023.00;;;;5073338;28;20051;-63
2024/01/23 00:50:10;;;;;;;7.60;2.00;;;;;8.50;99030.00;;;;5073316;28;20044;-64
2024/01/23 00:52:37;;;;;;;7.88;2.03;;;;;8.50;99039.00;;;;5073241;28;20056;-64
2024/01/23 00:55:04;;;;;;;10.10;2.38;;;;;8.50;99039.00;;;;5072933;28;20554;-64
2024/01/23 00:57:32;;;;;;;11.38;2.33;;;;;8.50;99040.00;;;;5071872;28;20460;-64
2024/01/23 01:00:00;;;;;;;9.10;2.33;;;;;8.50;99036.00;;;;5072099;28;20049;-64
2024/01/23 01:02:28;;;;;;;9.45;2.15;;;;;8.50;99043.00;;;;5073030;28;20404;-64
2024/01/23 01:04:54;;;;;;;7.25;1.95;;;;;8.60;99052.00;;;;5072666;28;20063;-64
2024/01/23 01:07:21;;;;;;;9.70;2.80;;;;;8.60;99051.00;;;;5073109;28;20090;-64
2024/01/23 01:09:48;;;;;;;7.32;2.15;;;;;8.60;99061.00;;;;5072961;28;20405;-64
2024/01/23 01:12:14;;;;;;;8.45;2.13;;;;;8.50;99066.00;;;;5073003;28;20036;-63
2024/01/23 01:14:41;;;;;;;12.82;2.25;;;;;8.50;99070.00;;;;5072318;28;20045;-64
2024/01/23 01:17:08;;;;;;;10.30;2.10;;;;;8.50;99062.00;;;;5073045;28;20119;-64
2024/01/23 01:19:34;;;;;;;9.02;2.15;;;;;8.50;99058.00;;;;5072862;28;20040;-63
2024/01/23 01:22:02;;;;;;;11.82;2.40;;;;;8.50;99079.00;;;;5071507;28;20048;-65
2024/01/23 01:24:29;;;;;;;7.90;2.03;;;;;8.50;99089.00;;;;5070483;28;20055;-64
2024/01/23 01:26:56;;;;;;;8.60;2.08;;;;;8.50;99064.00;;;;5071384;28;20052;-64
2024/01/23 01:29:23;;;;;;;14.43;2.63;;;;;8.50;99065.00;;;;5071419;28;20047;-64
2024/01/23 01:31:49;;;;;;;11.63;2.22;;;;;8.50;99069.00;;;;5072501;28;20047;-64
2024/01/23 01:34:16;;;;;;;10.68;2.20;;;;;8.50;99073.00;;;;5071807;28;20409;-64
2024/01/23 01:36:43;;;;;;;12.05;2.97;;;;;8.40;99070.00;;;;5072371;28;20486;-64
2024/01/23 01:39:12;;;;;;;9.88;2.10;;;;;8.40;99072.00;;;;5072375;28;20094;-64
2024/01/23 01:41:38;;;;;;;13.27;2.35;;;;;8.40;99063.00;;;;5070915;28;20052;-64
2024/01/23 01:44:05;;;;;;;14.90;2.50;;;;;8.40;99063.00;;;;5071546;28;20133;-64
2024/01/23 01:46:32;;;;;;;10.98;2.42;;;;;8.40;99072.00;;;;5070960;28;20048;-64
2024/01/23 01:48:59;;;;;;;10.18;1.95;;;;;8.40;99071.00;;;;5070841;28;20139;-64
2024/01/23 01:51:28;;;;;;;9.55;2.40;;;;;8.40;99087.00;;;;5072310;28;20044;-64
2024/01/23 01:53:56;;;;;;;11.27;2.28;;;;;8.50;99090.00;;;;5070307;28;20485;-64
2024/01/23 01:56:23;;;;;;;16.10;3.55;;;;;8.50;99081.00;;;;5072007;28;20075;-64
2024/01/23 01:58:50;;;;;;;13.90;2.83;;;;;8.50;99081.00;;;;5072101;28;20556;-64
2024/01/23 02:01:17;;;;;;;21.27;2.90;;;;;8.50;99076.00;;;;5072007;28;20036;-64
2024/01/23 02:03:44;;;;;;;10.38;2.58;;;;;8.50;99082.00;;;;5070162;28;20056;-64
2024/01/23 02:06:11;;;;;;;9.88;2.80;;;;;8.50;99081.00;;;;5071989;28;20041;-64
2024/01/23 02:08:38;;;;;;;11.77;2.50;;;;;8.40;99079.00;;;;5071953;28;20226;-65
2024/01/23 02:11:05;;;;;;;10.98;2.47;;;;;8.30;99098.00;;;;5071968;28;20040;-63
2024/01/23 02:13:31;;;;;;;14.65;3.63;;;;;8.20;99090.00;;;;5071415;28;20033;-64
2024/01/23 02:15:58;;;;;;;9.57;2.78;;;;;8.20;99104.00;;;;5071856;28;20076;-63
2024/01/23 02:18:26;;;;;;;13.07;2.53;;;;;8.20;99100.00;;;;5071933;28;20489;-63
2024/01/23 02:20:52;;;;;;;12.55;3.25;;;;;8.00;99092.00;;;;5072095;28;20045;-63
2024/01/23 02:23:20;;;;;;;14.43;2.92;;;;;8.00;99082.00;;;;5072061;28;20452;-63
2024/01/23 02:25:46;;;;;;;12.88;2.65;;;;;8.00;99101.00;;;;5071477;28;20044;-63
2024/01/23 02:28:15;;;;;;;18.40;3.72;;;;;8.00;99095.00;;;;5071923;28;20072;-63
2024/01/23 02:30:42;;;;;;;12.05;2.88;;;;;8.00;99089.00;;;;5071588;28;20051;-64
2024/01/23 02:33:09;;;;;;;15.15;3.50;;;;;8.10;99096.00;;;;5071721;28;20123;-63
2024/01/23 02:35:37;;;;;;;11.68;3.58;;;;;8.00;99110.00;;;;5073025;28;20196;-63
2024/01/23 02:38:04;;;;;;;12.95;3.22;;;;;8.00;99115.00;;;;5075791;28;20482;-63
2024/01/23 02:40:30;;;;;;;8.98;2.70;;;;;8.00;99112.00;;;;5075770;28;20560;-63
2024/01/23 02:42:57;;;;;;;18.02;3.22;;;;;8.00;99104.00;;;;5075748;28;20409;-63
2024/01/23 02:45:24;;;;;;;15.85;3.30;;;;;7.90;99103.00;;;;5074986;28;20044;-63
2024/01/23 02:47:51;;;;;;;18.70;3.40;;;;;7.90;99099.00;;;;5075684;28;20405;-64
2024/01/23 02:50:18;;;;;;;13.00;3.10;;;;;7.90;99109.00;;;;5075539;28;20222;-63
2024/01/23 02:52:45;;;;;;;13.43;3.33;;;;;7.90;99116.00;;;;5074200;28;20051;-63
2024/01/23 02:55:12;;;;;;;18.75;3.30;;;;;7.90;99121.00;;;;5074823;28;20044;-63
2024/01/23 02:57:38;;;;;;;16.02;3.20;;;;;7.80;99121.00;;;;5075406;28;20052;-63
2024/01/23 03:00:05;;;;;;;16.92;2.70;;;;;7.80;99117.00;;;;5075270;28;20102;-63
2024/01/23 03:02:32;;;;;;;13.05;2.83;;;;;7.80;99132.00;;;;5075396;28;20059;-63
2024/01/23 03:04:59;;;;;;;11.52;2.45;;;;;7.70;99133.00;;;;5074722;28;20044;-63
2024/01/23 03:07:25;;;;;;;13.35;3.03;;;;;7.70;99147.00;;;;5075061;28;20135;-63
2024/01/23 03:09:52;;;;;;;10.05;3.10;;;;;7.70;99162.00;;;;5075138;28;20047;-63
2024/01/23 03:12:21;;;;;;;8.65;2.33;;;;;7.70;99152.00;;;;5075056;28;20044;-64
2024/01/23 03:14:50;;;;;;;16.42;2.97;;;;;7.70;99156.00;;;;5074394;28;20047;-63
2024/01/23 03:17:17;;;;;;;22.63;3.35;;;;;7.80;99167.00;;;;5075139;28;20643;-64
2024/01/23 03:19:44;;;;;;;12.40;2.90;;;;;7.80;99174.00;;;;5074945;28;20049;-64
2024/01/23 03:22:11;;;;;;;11.75;3.15;;;;;7.80;99168.00;;;;5075070;28;20509;-64
2024/01/23 03:24:39;;;;;;;17.45;3.47;;;;;7.90;99169.00;;;;5074217;28;20040;-64
2024/01/23 03:27:06;;;;;;;21.45;4.40;;;;;8.00;99185.00;;;;5073514;28;20131;-64
2024/01/23 03:29:42;;;;;;;13.00;2.80;;;;;8.00;99183.00;;;;5074747;28;20090;-64
2024/01/23 03:32:09;;;;;;;15.38;3.22;;;;;8.00;99172.00;;;;5074873;28;20422;-64
2024/01/23 03:34:37;;;;;;;21.35;3.63;;;;;8.00;99188.00;;;;5074108;28;20040;-64
2024/01/23 03:37:04;;;;;;;18.13;4.00;;;;;8.00;99206.00;;;;5073533;28;20064;-65
2024/01/23 03:39:31;;;;;;;18.30;3.13;;;;;8.00;99196.00;;;;5074581;28;20537;-65
2024/01/23 03:41:59;;;;;;;19.60;3.08;;;;;8.00;99191.00;;;;5074618;28;20033;-65
2024/01/23 03:44:25;;;;;;;14.70;3.55;;;;;7.90;99205.00;;;;5073982;28;20041;-64
2024/01/23 03:46:53;;;;;;;19.05;3.42;;;;;7.90;99218.00;;;;5074262;28;20170;-64
2024/01/23 03:49:22;;;;;;;18.58;3.50;;;;;7.90;99225.00;;;;5074423;28;20076;-65
2024/01/23 03:51:49;;;;;;;13.93;3.10;;;;;7.90;99230.00;;;;5074422;28;20056;-65
2024/01/23 03:54:16;;;;;;;16.38;3.15;;;;;7.90;99232.00;;;;5073886;28;20505;-66
2024/01/23 03:56:43;;;;;;;17.33;3.03;;;;;7.90;99221.00;;;;5074134;28;20036;-65
2024/01/23 03:59:10;;;;;;;19.98;3.42;;;;;7.90;99221.00;;;;5074380;28;20041;-65
2024/01/23 04:01:36;;;;;;;17.40;3.45;;;;;7.90;99223.00;;;;5074497;28;20054;-65
2024/01/23 04:04:03;;;;;;;16.10;3.33;;;;;7.80;99230.00;;;;5073757;28;20040;-66
2024/01/23 04:06:30;;;;;;;15.25;3.67;;;;;7.90;99240.00;;;;5074078;28;20115;-65
2024/01/23 04:08:57;;;;;;;14.75;3.22;;;;;7.80;99239.00;;;;5074131;28;20052;-65
2024/01/23 04:11:24;;;;;;;11.55;2.55;;;;;7.80;99240.00;;;;5074103;28;20047;-65
2024/01/23 04:13:51;;;;;;;18.63;4.30;;;;;7.80;99244.00;;;;5072147;28;20125;-65
2024/01/23 04:16:17;;;;;;;18.90;3.13;;;;;7.70;99263.00;;;;5074180;28;20047;-65
2024/01/23 04:18:44;;;;;;;14.00;3.40;;;;;7.60;99271.00;;;;5074012;28;20041;-65
2024/01/23 04:21:15;;;;;;;16.20;3.45;;;;;7.60;99268.00;;;;5072673;28;20045;-64
2024/01/23 04:23:41;;;;;;;17.98;2.85;;;;;7.50;99264.00;;;;5073377;28;20032;-64
2024/01/23 04:26:08;;;;;;;15.50;3.47;;;;;7.50;99277.00;;;;5073503;28;20045;-64
2024/01/23 04:28:35;;;;;;;12.48;2.83;;;;;7.40;99264.00;;;;5073709;28;20052;-64
2024/01/23 04:31:02;;;;;;;20.83;3.78;;;;;7.50;99282.00;;;;5073762;28;20103;-64
2024/01/23 04:33:29;;;;;;;13.75;2.60;;;;;7.50;99277.00;;;;5072707;28;20037;-64
2024/01/23 04:35:56;;;;;;;13.25;2.97;;;;;7.40;99273.00;;;;5073563;28;20105;-64
2024/01/23 04:38:23;;;;;;;16.38;3.67;;;;;7.40;99262.00;;;;5072305;28;20044;-65
2024/01/23 04:40:49;;;;;;;11.73;2.67;;;;;7.40;99252.00;;;;5073302;28;20444;-65
2024/01/23 04:43:16;;;;;;;15.80;2.90;;;;;7.30;99261.00;;;;5073334;28;20037;-65
2024/01/23 04:45:43;;;;;;;14.43;3.08;;;;;7.30;99237.00;;;;5072763;28;20486;-64
2024/01/23 04:48:10;;;;;;;17.70;3.45;;;;;7.30;99250.00;;;;5073173;28;20044;-64
2024/01/23 04:50:37;;;;;;;18.05;3.63;;;;;7.30;99234.00;;;;5073212;28;20494;-64
2024/01/23 04:53:03;;;;;;;12.30;2.78;;;;;7.30;99238.00;;;;5073138;28;20409;-64
2024/01/23 04:55:30;;;;;;;13.45;2.08;;;;;7.30;99248.00;;;;5072619;28;20044;-64
2024/01/23 04:57:56;;;;;;;18.55;3.17;;;;;7.30;99257.00;;;;5070889;28;20074;-65
2024/01/23 05:00:23;;;;;;;15.07;2.60;;;;;7.30;99249.00;;;;5072984;28;20060;-65
2024/01/23 05:02:49;;;;;;;11.57;2.40;;;;;7.30;99251.00;;;;5071692;28;20051;-64
2024/01/23 05:05:16;;;;;;;11.43;3.22;;;;;7.30;99267.00;;;;5072387;28;20048;-64
2024/01/23 05:07:43;;;;;;;17.38;2.90;;;;;7.20;99283.00;;;;5073018;28;20048;-64
2024/01/23 05:10:09;;;;;;;10.15;2.85;;;;;7.20;99293.00;;;;5071602;28;20059;-64
2024/01/23 05:12:36;;;;;;;8.68;2.70;;;;;7.20;99299.00;;;;5072785;28;20036;-64
2024/01/23 05:15:04;;;;;;;13.82;2.92;;;;;7.20;99300.00;;;;5072203;28;20040;-64
2024/01/23 05:17:37;;;;;;;14.55;2.38;;;;;7.20;99312.00;;;;5072715;28;20056;-64
2024/01/23 05:20:04;;;;;;;19.37;3.03;;;;;7.20;99320.00;;;;5071520;28;20044;-64
2024/01/23 05:22:31;;;;;;;12.68;2.75;;;;;7.20;99325.00;;;;5071534;28;20321;-65
2024/01/23 05:24:58;;;;;;;11.82;3.53;;;;;7.20;99331.00;;;;5071966;28;20040;-65
2024/01/23 05:27:26;;;;;;;12.35;3.03;;;;;7.20;99327.00;;;;5072576;28;20132;-64
2024/01/23 05:29:53;;;;;;;18.17;2.75;;;;;7.10;99336.00;;;;5072515;28;20044;-64
2024/01/23 05:32:19;;;;;;;11.07;2.30;;;;;7.10;99333.00;;;;5071254;28;20082;-64
2024/01/23 05:34:46;;;;;;;11.98;2.65;;;;;7.10;99362.00;;;;5070782;28;20045;-64
2024/01/23 05:37:13;;;;;;;11.65;2.83;;;;;7.10;99363.00;;;;5072531;28;20524;-64
2024/01/23 05:39:39;;;;;;;9.23;2.70;;;;;7.00;99363.00;;;;5072465;28;20062;-64
2024/01/23 05:42:06;;;;;;;14.23;2.45;;;;;7.00;99371.00;;;;5072445;28;20048;-64
2024/01/23 05:44:33;;;;;;;8.90;2.33;;;;;7.10;99374.00;;;;5071747;28;20044;-64
2024/01/23 05:47:00;;;;;;;14.38;2.65;;;;;7.00;99385.00;;;;5072402;28;20072;-64
2024/01/23 05:49:27;;;;;;;14.00;2.40;;;;;7.00;99384.00;;;;5071136;28;20116;-64
2024/01/23 05:51:53;;;;;;;14.80;2.90;;;;;7.00;99387.00;;;;5072235;28;20052;-64
2024/01/23 05:54:20;;;;;;;13.93;2.55;;;;;7.00;99396.00;;;;5071759;28;20045;-64
2024/01/23 05:56:47;;;;;;;14.63;2.95;;;;;7.00;99391.00;;;;5072242;28;20386;-64
2024/01/23 05:59:13;;;;;;;14.35;3.75;;;;;7.00;99407.00;;;;5072239;28;20044;-64
2024/01/23 06:01:40;;;;;;;10.80;2.35;;;;;7.00;99409.00;;;;5072316;28;20047;-64
2024/01/23 06:04:08;;;;;;;14.48;3.20;;;;;7.10;99420.00;;;;5071549;28;20068;-64
2024/01/23 06:06:39;;;;;;;9.73;2.17;;;;;7.10;99418.00;;;;5072265;28;20409;-64
2024/01/23 06:09:10;;;;;;;10.23;2.40;;;;;7.00;99427.00;;;;5072042;28;20511;-64
2024/01/23 06:11:40;;;;;;;23.48;9.40;;;;;7.00;99431.00;;;;5072318;28;20116;-64
2024/01/23 06:14:07;;;;;;;12.20;3.20;;;;;7.00;99426.00;;;;5070163;28;20472;-64
2024/01/23 06:16:34;;;;;;;9.32;2.88;;;;;7.00;99428.00;;;;5072084;28;20098;-65
2024/01/23 06:19:00;;;;;;;11.80;2.55;;;;;7.00;99437.00;;;;5070802;28;20106;-64
2024/01/23 06:21:27;;;;;;;11.75;2.70;;;;;6.90;99435.00;;;;5072101;28;20052;-64
2024/01/23 06:23:54;;;;;;;14.80;2.97;;;;;6.90;99435.00;;;;5071231;28;20506;-64
2024/01/23 06:26:21;;;;;;;11.48;2.90;;;;;6.90;99445.00;;;;5070517;28;20052;-64
2024/01/23 06:28:48;;;;;;;15.15;3.15;;;;;7.00;99447.00;;;;5071944;28;20413;-65
2024/01/23 06:31:14;;;;;;;14.18;3.00;;;;;7.00;99466.00;;;;5070658;28;20040;-66
2024/01/23 06:33:41;;;;;;;18.67;3.33;;;;;7.00;99463.00;;;;5071193;28;20486;-65
2024/01/23 06:36:08;;;;;;;13.65;2.55;;;;;7.00;99479.00;;;;5072144;28;20048;-65
2024/01/23 06:38:35;;;;;;;13.52;3.00;;;;;7.00;99486.00;;;;5071733;28;20098;-65
2024/01/23 06:41:01;;;;;;;12.20;3.30;;;;;7.00;99489.00;;;;5071748;28;20094;-65
2024/01/23 06:43:28;;;;;;;9.85;2.85;;;;;7.00;99503.00;;;;5071414;28;20041;-65
2024/01/23 06:45:56;;;;;;;9.07;2.53;;;;;7.00;99506.00;;;;5053990;28;20052;-66
2024/01/23 06:48:23;;;;;;;11.68;2.80;;;;;7.00;99515.00;;;;5071824;28;20037;-66
2024/01/23 06:50:49;;;;;;;10.40;2.75;;;;;7.00;99524.00;;;;5071563;28;20045;-65
2024/01/23 06:53:16;;;;;;;9.55;2.17;;;;;6.90;99536.00;;;;5071642;28;20086;-65
2024/01/23 06:55:44;;;;;;;12.80;2.97;;;;;7.00;99554.00;;;;5069653;28;20059;-64
2024/01/23 06:58:10;;;;;;;11.07;3.22;;;;;7.00;99549.00;;;;5070398;28;20082;-64
2024/01/23 07:00:37;;;;;;;9.32;2.70;;;;;7.00;99563.00;;;;5072043;28;20048;-63
2024/01/23 07:03:05;;;;;;;10.57;2.67;;;;;7.00;99572.00;;;;5070666;28;20041;-63
2024/01/23 07:05:32;;;;;;;13.23;2.58;;;;;7.10;99567.00;;;;5071303;28;20036;-64
2024/01/23 07:07:58;;;;;;;13.15;2.53;;;;;7.10;99570.00;;;;5071998;28;20048;-64
2024/01/23 07:10:26;;;;;;;11.77;2.78;;;;;7.20;99573.00;;;;5071534;28;20051;-64
2024/01/23 07:12:53;;;;;;;11.90;2.55;;;;;7.20;99571.00;;;;5071528;28;20044;-64
2024/01/23 07:15:20;;;;;;;13.35;2.90;;;;;7.30;99581.00;;;;5070954;28;20048;-64
2024/01/23 07:17:47;;;;;;;10.25;2.35;;;;;7.30;99573.00;;;;5071460;28;20413;-64
2024/01/23 07:20:14;;;;;;;11.50;3.15;;;;;7.30;99579.00;;;;5071332;28;20037;-65
2024/01/23 07:22:40;;;;;;;9.65;2.22;;;;;7.40;99598.00;;;;5074732;28;20040;-65
2024/01/23 07:25:07;;;;;;;9.98;2.63;;;;;7.40;99602.00;;;;5074367;28;20127;-65
2024/01/23 07:27:37;;;;;;;9.02;2.10;;;;;7.50;99601.00;;;;5075089;28;20041;-65
2024/01/23 07:30:05;;;;;;;14.63;2.35;;;;;7.50;99604.00;;;;5075004;28;20516;-64
2024/01/23 07:32:31;;;;;;;8.13;2.28;;;;;7.50;99607.00;;;;5075205;28;20090;-64
2024/01/23 07:34:58;;;;;;;11.48;3.15;;;;;7.50;99610.00;;;;5074135;28;20041;-65
2024/01/23 07:37:25;;;;;;;11.57;2.63;;;;;7.50;99601.00;;;;5073813;28;20054;-65
2024/01/23 07:39:51;;;;;;;14.55;3.03;;;;;7.50;99608.00;;;;5073621;28;20052;-65
2024/01/23 07:42:18;;;;;;;13.30;3.30;;;;;7.40;99616.00;;;;5073719;28;20482;-65
2024/01/23 07:44:46;;;;;;;12.18;2.42;;;;;7.40;99621.00;;;;5072861;28;20139;-65
2024/01/23 07:47:13;;;;;;;13.55;2.70;;;;;7.40;99625.00;;;;5073700;28;20044;-65
2024/01/23 07:49:40;;;;;;;15.55;3.03;;;;;7.40;99618.00;;;;5074480;28;20071;-65
2024/01/23 07:52:10;;;;;;;15.68;2.70;;;;;7.40;99617.00;;;;5073488;28;20048;-63
2024/01/23 07:54:36;;;;;;;12.60;2.92;;;;;7.40;99622.00;;;;5072787;28;20048;-63
2024/01/23 07:57:03;;;;;;;9.50;3.08;;;;;7.40;99625.00;;;;5073129;28;20058;-63
2024/01/23 07:59:30;;;;;;;11.07;2.67;;;;;7.50;99633.00;;;;5074597;28;20052;-63
2024/01/23 08:01:57;;;;;;;12.93;2.92;;;;;7.50;99642.00;;;;5074420;28;20086;-63
2024/01/23 08:04:23;;;;;;;10.15;2.10;;;;;7.60;99641.00;;;;5073888;28;20048;-62
2024/01/23 08:06:50;;;;;;;11.18;2.95;;;;;7.60;99651.00;;;;5072846;28;20055;-62
2024/01/23 08:09:17;;;;;;;16.73;2.90;;;;;7.60;99650.00;;;;5073154;28;20048;-64
2024/01/23 08:11:44;;;;;;;13.80;3.05;;;;;7.60;99655.00;;;;5074422;28;20048;-63
2024/01/23 08:14:10;;;;;;;11.57;3.38;;;;;7.70;99653.00;;;;5073980;28;20068;-63
2024/01/23 08:16:37;;;;;;;11.95;3.13;;;;;7.80;99669.00;;;;5073276;28;20045;-63
2024/01/23 08:19:04;;;;;;;9.50;2.13;;;;;7.80;99664.00;;;;5074277;28;20040;-64
2024/01/23 08:21:30;;;;;;;12.55;2.47;;;;;8.00;99678.00;;;;5075189;28;20557;-65
2024/01/23 08:23:57;;;;;;;18.67;9.85;;;;;8.10;99681.00;;;;5081029;28;20055;-64
2024/01/23 08:26:24;;;;;;;8.75;2.58;;;;;8.20;99680.00;;;;5087479;28;20051;-63
2024/01/23 08:28:59;;;;;;;11.65;2.88;;;;;8.40;99681.00;;;;5090776;28;20048;-64
2024/01/23 08:31:25;;;;;;;8.45;2.83;;;;;8.40;99690.00;;;;5086279;28;20106;-65
2024/01/23 08:33:52;;;;;;;7.75;2.55;;;;;8.50;99687.00;;;;5078496;28;20040;-67
2024/01/23 08:36:19;;;;;;;10.98;2.30;;;;;8.70;99703.00;;;;5074838;28;20044;-65
2024/01/23 08:38:45;;;;;;;10.32;2.63;;;;;8.70;99702.00;;;;5074060;28;20548;-66
2024/01/23 08:41:12;;;;;;;9.27;2.97;;;;;8.70;99699.00;;;;5074108;28;20040;-65
2024/01/23 08:43:38;;;;;;;12.07;2.70;;;;;8.80;99697.00;;;;5073216;28;20041;-65
2024/01/23 08:46:05;;;;;;;11.80;2.60;;;;;8.80;99705.00;;;;5074346;28;20040;-65
2024/01/23 08:48:32;;;;;;;9.95;2.50;;;;;8.90;99703.00;;;;5074682;28;20045;-65
2024/01/23 08:50:58;;;;;;;15.88;3.78;;;;;9.00;99704.00;;;;5084118;28;20062;-66
2024/01/23 08:53:25;;;;;;;16.77;4.05;;;;;9.10;99706.00;;;;5087968;28;20028;-66
2024/01/23 08:55:52;;;;;;;15.05;3.13;;;;;9.10;99708.00;;;;5090212;28;20055;-66
2024/01/23 08:58:19;;;;;;;15.55;3.58;;;;;9.20;99709.00;;;;5086301;28;20055;-66
2024/01/23 09:00:45;;;;;;;17.67;3.95;;;;;9.10;99717.00;;;;5086640;28;20108;-66
2024/01/23 09:03:12;;;;;;;16.25;3.60;;;;;9.10;99710.00;;;;5088512;28;20086;-66
2024/01/23 09:05:39;;;;;;;31.10;4.43;;;;;9.20;99718.00;;;;5085292;28;20489;-65
2024/01/23 09:08:11;;;;;;;20.80;3.83;;;;;9.20;99727.00;;;;5087791;28;20056;-65
2024/01/23 09:10:38;;;;;;;14.90;3.42;;;;;9.30;99730.00;;;;5088986;28;20044;-65
2024/01/23 09:13:04;;;;;;;19.80;3.60;;;;;9.40;99728.00;;;;5090065;28;20076;-65
2024/01/23 09:15:31;;;;;;;16.52;3.78;;;;;9.50;99734.00;;;;5087353;28;20048;-66
2024/01/23 09:18:00;;;;;;;18.63;4.00;;;;;9.40;99738.00;;;;5089010;28;20044;-65
2024/01/23 09:20:27;;;;;;;12.65;2.97;;;;;9.40;99738.00;;;;5087780;28;20044;-65
2024/01/23 09:22:54;;;;;;;13.25;3.55;;;;;9.40;99744.00;;;;5087709;28;20501;-65
2024/01/23 09:25:20;;;;;;;16.85;3.72;;;;;9.50;99753.00;;;;5074604;28;20114;-65
2024/01/23 09:27:48;;;;;;;11.73;3.38;;;;;9.30;99764.00;;;;5073585;28;20485;-65
2024/01/23 09:30:19;;;;;;;16.70;3.17;;;;;9.20;99769.00;;;;5073725;28;20049;-65
2024/01/23 09:32:52;;;;;;;17.83;3.83;;;;;9.10;99769.00;;;;5073908;28;20072;-65
2024/01/23 09:35:19;;;;;;;21.30;4.35;;;;;9.20;99781.00;;;;5072568;28;20481;-65
2024/01/23 09:37:45;;;;;;;18.90;4.00;;;;;9.20;99770.00;;;;5073482;28;20309;-65
2024/01/23 09:40:13;;;;;;;16.80;3.45;;;;;9.30;99779.00;;;;5073093;28;20052;-66
2024/01/23 09:42:40;;;;;;;18.08;5.10;;;;;9.20;99791.00;;;;5071960;28;20486;-65
2024/01/23 09:45:18;;;;;;;13.30;4.32;;;;;9.20;99786.00;;;;5071043;28;20072;-66
2024/01/23 09:47:47;;;;;;;15.90;3.67;;;;;9.40;99781.00;;;;5073664;28;20460;-66
2024/01/23 09:50:16;;;;;;;12.18;3.30;;;;;9.50;99792.00;;;;5072672;28;20040;-65
2024/01/23 09:52:48;;;;;;;13.93;3.17;;;;;9.40;99798.00;;;;5072374;28;20382;-65
2024/01/23 09:55:14;;;;;;;16.73;4.00;;;;;9.30;99809.00;;;;5070459;28;20036;-65
2024/01/23 09:57:43;;;;;;;12.57;3.10;;;;;9.30;99825.00;;;;5072081;28;20048;-65
2024/01/23 10:00:13;;;;;;;21.27;4.30;;;;;9.20;99819.00;;;;5072143;28;20044;-65
2024/01/23 10:02:41;;;;;;;15.50;3.30;;;;;9.30;99821.00;;;;5072118;28;20067;-65
2024/01/23 10:05:15;;;;;;;13.55;4.03;;;;;9.30;99813.00;;;;5071598;28;20385;-66
2024/01/23 10:07:42;;;;;;;13.00;3.58;;;;;9.30;99820.00;;;;5071070;28;20079;-66
2024/01/23 10:10:17;;;;;;;19.23;4.63;;;;;9.40;99833.00;;;;5072124;28;20048;-65
2024/01/23 10:12:46;;;;;;;11.95;3.95;;;;;9.40;99827.00;;;;5070827;28;20041;-65
2024/01/23 10:15:22;;;;;;;15.75;3.53;;;;;9.40;99828.00;;;;5071405;28;20397;-65
2024/01/23 10:17:49;;;;;;;17.10;3.55;;;;;9.40;99824.00;;;;5072092;28;20056;-65
2024/01/23 10:20:17;;;;;;;19.85;4.50;;;;;9.50;99808.00;;;;5072311;28;20493;-65
2024/01/23 10:22:45;;;;;;;15.45;3.67;;;;;9.60;99821.00;;;;5072197;28;20080;-65
2024/01/23 10:25:20;;;;;;;16.92;3.88;;;;;9.60;99810.00;;;;5071230;28;20448;-65
2024/01/23 10:27:51;;;;;;;14.65;3.65;;;;;9.60;99821.00;;;;5071998;28;20610;-65
2024/01/23 10:30:18;;;;;;;15.43;3.38;;;;;9.60;99805.00;;;;5072013;28;20048;-66
2024/01/23 10:32:46;;;;;;;17.90;4.20;;;;;9.70;99801.00;;;;5070705;28;20044;-62
2024/01/23 10:35:13;;;;;;;15.75;4.07;;;;;9.80;99797.00;;;;5070063;28;20041;-66
2024/01/23 10:37:40;;;;;;;19.48;3.95;;;;;10.00;99800.00;;;;5071915;28;20489;-66
2024/01/23 10:40:13;;;;;;;13.80;3.40;;;;;10.10;99791.00;;;;5072548;28;20521;-65
2024/01/23 10:42:40;;;;;;;18.95;3.58;;;;;10.00;99779.00;;;;5071752;28;20045;-66
2024/01/23 10:45:10;;;;;;;13.50;3.08;;;;;10.00;99781.00;;;;5071188;28;20115;-66
2024/01/23 10:47:38;;;;;;;19.33;4.88;;;;;10.00;99788.00;;;;5071856;28;20486;-66
2024/01/23 10:50:07;;;;;;;13.82;3.65;;;;;9.90;99799.00;;;;5071651;28;20072;-66
2024/01/23 10:52:39;;;;;;;16.40;3.80;;;;;9.80;99804.00;;;;5071732;28;20036;-66
2024/01/23 10:55:06;;;;;;;15.95;3.65;;;;;9.80;99789.00;;;;5069872;28;20129;-66
2024/01/23 10:57:37;;;;;;;8.90;2.90;;;;;9.70;99798.00;;;;5073608;28;20051;-66
2024/01/23 11:00:05;;;;;;;14.90;3.17;;;;;9.60;99809.00;;;;5075570;28;20044;-66
2024/01/23 11:02:42;;;;;;;15.68;3.10;;;;;9.30;99825.00;;;;5074339;28;20048;-66
2024/01/23 11:05:09;;;;;;;11.15;2.85;;;;;9.10;99822.00;;;;5074898;28;20409;-66
2024/01/23 11:07:49;;;;;;;12.70;3.10;;;;;9.10;99822.00;;;;5075450;28;20042;-65
2024/01/23 11:10:52;;;;;;;11.32;3.20;;;;;9.10;99821.00;;;;5075383;28;20036;-66
2024/01/23 11:13:28;;;;;;;17.75;4.07;;;;;9.30;99825.00;;;;5075205;28;20049;-66
2024/01/23 11:15:55;;;;;;;13.75;3.85;;;;;9.30;99810.00;;;;5073795;28;20115;-66
2024/01/23 11:18:31;;;;;;;12.35;3.50;;;;;9.60;99795.00;;;;5075128;28;20393;-66
2024/01/23 11:21:08;;;;;;;17.33;3.63;;;;;9.80;99796.00;;;;5073836;28;20477;-67
2024/01/23 11:23:36;;;;;;;15.50;3.53;;;;;9.90;99800.00;;;;5073308;28;20052;-66
2024/01/23 11:26:12;;;;;;;9.95;3.45;;;;;10.00;99806.00;;;;5073774;28;20068;-66
2024/01/23 11:28:39;;;;;;;20.40;3.80;;;;;10.10;99797.00;;;;5074999;28;20605;-66
2024/01/23 11:31:13;;;;;;;23.60;4.47;;;;;10.30;99801.00;;;;5074985;28;20044;-66
2024/01/23 11:33:39;;;;;;;19.58;4.22;;;;;10.50;99800.00;;;;5074250;28;20417;-65
2024/01/23 11:36:13;;;;;;;14.93;3.45;;;;;10.70;99804.00;;;;5073499;28;20135;-65
2024/01/23 11:38:44;;;;;;;14.45;3.67;;;;;10.90;99811.00;;;;5074840;28;20045;-65
2024/01/23 11:41:24;;;;;;;14.90;3.40;;;;;10.90;99809.00;;;;5074523;28;20143;-65
2024/01/23 11:44:01;;;;;;;18.02;3.47;;;;;10.80;99804.00;;;;5072901;28;20462;-65
2024/01/23 11:46:30;;;;;;;16.52;4.15;;;;;10.60;99805.00;;;;5074702;28;20045;-64
2024/01/23 11:48:56;;;;;;;20.02;3.70;;;;;10.60;99801.00;;;;5056593;28;20056;-65
2024/01/23 11:51:24;;;;;;;16.88;3.95;;;;;10.50;99803.00;;;;5074567;28;20083;-65
2024/01/23 11:53:56;;;;;;;15.52;3.65;;;;;10.30;99799.00;;;;5072718;28;20044;-65
2024/01/23 11:56:23;;;;;;;15.55;4.00;;;;;10.20;99797.00;;;;5074420;28;20048;-66
2024/01/23 11:58:50;;;;;;;18.15;3.65;;;;;10.10;99793.00;;;;5074380;28;20044;-66
2024/01/23 12:01:17;;;;;;;16.58;4.40;;;;;10.20;99788.00;;;;5073235;28;20058;-65
2024/01/23 12:03:48;;;;;;;15.90;2.97;;;;;10.10;99788.00;;;;5073756;28;20079;-65
2024/01/23 12:06:16;;;;;;;16.90;4.20;;;;;10.10;99786.00;;;;5072993;28;20528;-65
2024/01/23 12:08:44;;;;;;;17.00;3.63;;;;;10.10;99787.00;;;;5074101;28;20078;-65
2024/01/23 12:11:16;;;;;;;19.85;3.88;;;;;10.10;99785.00;;;;5073144;28;20139;-65
2024/01/23 12:13:47;;;;;;;21.13;4.60;;;;;10.00;99789.00;;;;5073603;28;20056;-65
2024/01/23 12:16:14;;;;;;;16.27;4.13;;;;;10.00;99791.00;;;;5074050;28;20611;-65
2024/01/23 12:18:41;;;;;;;13.45;4.15;;;;;10.00;99791.00;;;;5072981;28;20417;-64
2024/01/23 12:21:09;;;;;;;15.27;3.88;;;;;10.00;99795.00;;;;5074091;28;20059;-65